Monday, November 24, 2014, 12:34 PM EST
Back to Local

KCXY, Harrisburg Capital City

Location: New Cumberland, PA, United States Lat: 40.217
Local Time: 12:34 PM EST (17:34 GMT) Lon: -76.85
Time Zone: US/Eastern Elev: 347 ft

Show me the last for .
Show Decoded

2014-11-24 11:56 METAR KCXY 241656Z 18019G29KT 10SM CLR 21/13 A2958 RMK AO2 PK WND 19032/1621
                 SLP016 T02060133 =
2014-11-24 10:56 METAR KCXY 241556Z 19018G26KT 10SM CLR 20/13 A2960 RMK AO2 PK WND 18027/1507
                 SLP025 T02000133 =
2014-11-24 09:56 METAR KCXY 241456Z 20016G24KT 10SM CLR 19/14 A2962 RMK AO2 PK WND 21027/1409
                 SLP030 T01940139 51004 =
2014-11-24 08:56 METAR KCXY 241356Z 21012G23KT 10SM SCT022 19/14 A2962 RMK AO2 PK WND 19027/1345
                 SLP030 T01890139 =
2014-11-24 08:10 METAR KCXY 241310Z 19014G25KT 10SM BKN024 18/14 A2961 RMK AO2 T01830144 =
2014-11-24 08:03 METAR KCXY 241303Z 19016G25KT 10SM SCT024 18/14 A2961 RMK AO2 T01830144 =
2014-11-24 07:56 METAR KCXY 241256Z 19013G25KT 10SM BKN024 18/14 A2961 RMK AO2 SLP028 T01830144 =
2014-11-24 06:56 METAR KCXY 241156Z AUTO 18015G26KT 10SM BKN022 BKN028 BKN033 18/15 A2961 RMK AO2
                 PK WND 17029/1145 SLP026 60030 70054 T01830150 10183 20094 53003 =
2014-11-24 06:39 METAR KCXY 241139Z AUTO 19007G18KT 150V220 10SM SCT022 BKN029 OVC035 18/15 A2960
                 RMK AO2 T01780150 =
2014-11-24 06:32 METAR KCXY 241132Z AUTO 19011G21KT 10SM SCT022 BKN030 OVC035 18/15 A2961 RMK AO2
                 T01830150 =
2014-11-24 06:25 METAR KCXY 241125Z AUTO 18011G19KT 10SM BKN024 BKN030 OVC035 18/15 A2961 RMK AO2
                 T01780150 =
2014-11-24 05:56 METAR KCXY 241056Z AUTO 18011G19KT 10SM SCT024 BKN031 OVC038 18/15 A2959 RMK AO2
                 RAE00 SLP022 P0000 T01780150 =
2014-11-24 05:42 METAR KCXY 241042Z AUTO 17011KT 10SM SCT023 BKN032 BKN039 17/15 A2959 RMK AO2
                 RAE00 P0000 T01720150 =
2014-11-24 04:56 METAR KCXY 240956Z AUTO 18012G22KT 10SM -RA BKN016 OVC023 17/15 A2960 RMK AO2
                 RAE33B50 SLP025 P0004 T01720150 =
2014-11-24 04:51 METAR KCXY 240951Z AUTO 18012G22KT 10SM -RA BKN016 OVC023 17/15 A2960 RMK AO2
                 RAE33B50 P0004 =
2014-11-24 04:30 METAR KCXY 240930Z AUTO 15014G20KT 6SM -RA BR FEW009 BKN014 OVC024 16/14 A2960
                 RMK AO2 P0004 T01610144 =
2014-11-24 03:56 METAR KCXY 240856Z AUTO 15009KT 7SM -RA OVC014 16/14 A2961 RMK AO2 SLP027 P0001
                 60026 T01610144 56044 =
2014-11-24 03:08 METAR KCXY 240808Z AUTO 18008G19KT 7SM -RA OVC011 16/13 A2963 RMK AO2 P0000
                 T01560133 =
2014-11-24 02:39 METAR KCXY 240739Z AUTO 10005KT 8SM -RA OVC008 13/12 A2963 RMK AO2 CIG 005V010
                 P0009 T01280122 =
2014-11-24 02:30 METAR KCXY 240730Z AUTO 10006KT 2 1/2SM RA BR OVC008 13/12 A2963 RMK AO2 CIG
                 004V011 P0009 T01280117 =
2014-11-24 01:56 METAR KCXY 240656Z AUTO 10008KT 3SM RA BR OVC006 11/11 A2965 RMK AO2 CIG 003V010
                 PRESFR SLP041 P0016 T01110106 =
2014-11-24 01:48 METAR KCXY 240648Z AUTO 10009KT 3SM RA BR BKN004 OVC008 11/10 A2966 RMK AO2
                 PRESFR P0015 T01060100 =
2014-11-24 01:40 METAR KCXY 240640Z AUTO 10007KT 2 1/2SM RA BR OVC004 11/10 A2967 RMK AO2 CIG
                 003V009 P0013 T01060100 =
2014-11-24 01:13 METAR KCXY 240613Z AUTO 10009KT 2SM RA BR OVC004 09/09 A2971 RMK AO2 CIG 003V007
                 PRESFR P0005 T00940089 =
2014-11-24 00:56 METAR KCXY 240556Z AUTO 11008KT 2 1/2SM RA BR OVC005 09/08 A2974 RMK AO2 PRESFR
                 SLP072 P0013 60024 T00940083 10094 20078 58065 =
2014-11-24 00:40 METAR KCXY 240540Z AUTO 11007KT 2 1/2SM RA BR OVC006 09/08 A2977 RMK AO2 PRESFR
                 P0009 T00890078 =
2014-11-24 00:08 METAR KCXY 240508Z AUTO 08005KT 3SM RA BR OVC009 08/07 A2982 RMK AO2 CIG 007V012
                 PRESFR P0002 T00830072 =
2014-11-23 23:56 METAR KCXY 240456Z AUTO 09005KT 4SM RA BR OVC010 08/07 A2983 RMK AO2 PRESFR
                 SLP105 P0007 T00830072 401330006 =
2014-11-23 23:07 METAR KCXY 240407Z AUTO 11004KT 7SM -RA BKN014 OVC025 08/06 A2989 RMK AO2 P0000
                 T00830061 =
2014-11-23 22:56 METAR KCXY 240356Z AUTO 12005KT 6SM -RA BKN017 BKN025 OVC033 08/06 A2990 RMK AO2
                 RAB12 SLP128 P0004 T00830056 =
2014-11-23 22:25 METAR KCXY 240325Z AUTO 11007KT 9SM -RA BKN019 BKN029 OVC037 09/03 A2992 RMK AO2
                 RAB12 P0000 T00890033 =
2014-11-23 20:56 METAR KCXY 240156Z AUTO 12009KT 10SM SCT034 OVC046 09/00 A2997 RMK AO2 SLP152
                 T00890000 =
2014-11-23 19:56 METAR KCXY 240056Z 09008KT 10SM OVC046 08/M02 A3002 RMK AO2 SLP167 T00831022 =
2014-11-23 17:56 METAR KCXY 232256Z 07005KT 10SM CLR 09/M03 A3006 RMK AO2 SLP182 T00891028 =
2014-11-23 16:56 METAR KCXY 232156Z 10008KT 10SM CLR 09/M03 A3006 RMK AO2 SLP181 T00941028 =
2014-11-23 15:56 METAR KCXY 232056Z 11006KT 10SM CLR 12/M03 A3007 RMK AO2 SLP185 T01171028 56017
                 =
2014-11-23 14:56 METAR KCXY 231956Z 11008KT 10SM CLR 13/M03 A3007 RMK AO2 SLP186 T01281028 =
2014-11-23 13:56 METAR KCXY 231856Z 10006KT 10SM CLR 13/M03 A3010 RMK AO2 SLP195 T01281033 =
2014-11-23 12:56 METAR KCXY 231756Z 12005KT 10SM CLR 11/M04 A3012 RMK AO2 SLP202 T01111039 10111
                 20006 56032 =

Support USWX by starting your Amazon purchase here.